sensor_id;sensor_type;location;lat;lon;timestamp;pressure;altitude;pressure_sealevel;temperature
19644;BMP180;9970;-36.854;174.870;2022-12-07T00:00:54;100438.00;;;17.90
19644;BMP180;9970;-36.854;174.870;2022-12-07T00:03:27;100443.00;;;18.00
19644;BMP180;9970;-36.854;174.870;2022-12-07T00:06:01;100427.00;;;18.00
19644;BMP180;9970;-36.854;174.870;2022-12-07T00:08:35;100422.00;;;18.00
19644;BMP180;9970;-36.854;174.870;2022-12-07T00:11:10;100443.00;;;18.00
19644;BMP180;9970;-36.854;174.870;2022-12-07T00:13:44;100430.00;;;18.00
19644;BMP180;9970;-36.854;174.870;2022-12-07T00:16:18;100423.00;;;18.00
19644;BMP180;9970;-36.854;174.870;2022-12-07T00:18:51;100419.00;;;18.00
19644;BMP180;9970;-36.854;174.870;2022-12-07T00:21:31;100428.00;;;18.00
19644;BMP180;9970;-36.854;174.870;2022-12-07T00:24:00;100423.00;;;18.00
19644;BMP180;9970;-36.854;174.870;2022-12-07T00:26:35;100428.00;;;18.00
19644;BMP180;9970;-36.854;174.870;2022-12-07T00:29:15;100430.00;;;17.90
19644;BMP180;9970;-36.854;174.870;2022-12-07T00:31:46;100431.00;;;17.90
19644;BMP180;9970;-36.854;174.870;2022-12-07T00:34:20;100428.00;;;17.90
19644;BMP180;9970;-36.854;174.870;2022-12-07T00:36:53;100418.00;;;17.90
19644;BMP180;9970;-36.854;174.870;2022-12-07T00:39:26;100419.00;;;17.80
19644;BMP180;9970;-36.854;174.870;2022-12-07T00:42:04;100426.00;;;17.80
19644;BMP180;9970;-36.854;174.870;2022-12-07T00:44:37;100410.00;;;17.80
19644;BMP180;9970;-36.854;174.870;2022-12-07T00:47:10;100415.00;;;17.80
19644;BMP180;9970;-36.854;174.870;2022-12-07T00:49:43;100419.00;;;17.80
19644;BMP180;9970;-36.854;174.870;2022-12-07T00:52:17;100430.00;;;17.80
19644;BMP180;9970;-36.854;174.870;2022-12-07T00:54:50;100417.00;;;17.80
19644;BMP180;9970;-36.854;174.870;2022-12-07T00:57:23;100422.00;;;17.80
19644;BMP180;9970;-36.854;174.870;2022-12-07T00:59:56;100409.00;;;17.80
19644;BMP180;9970;-36.854;174.870;2022-12-07T01:02:29;100409.00;;;17.80
19644;BMP180;9970;-36.854;174.870;2022-12-07T01:05:02;100407.00;;;17.90
19644;BMP180;9970;-36.854;174.870;2022-12-07T01:07:35;100400.00;;;17.90
19644;BMP180;9970;-36.854;174.870;2022-12-07T01:10:08;100405.00;;;17.90
19644;BMP180;9970;-36.854;174.870;2022-12-07T01:12:42;100407.00;;;17.90
19644;BMP180;9970;-36.854;174.870;2022-12-07T01:15:15;100395.00;;;17.90
19644;BMP180;9970;-36.854;174.870;2022-12-07T01:17:48;100385.00;;;17.90
19644;BMP180;9970;-36.854;174.870;2022-12-07T01:20:21;100397.00;;;18.00
19644;BMP180;9970;-36.854;174.870;2022-12-07T01:22:54;100400.00;;;17.90
19644;BMP180;9970;-36.854;174.870;2022-12-07T01:25:27;100408.00;;;18.00
19644;BMP180;9970;-36.854;174.870;2022-12-07T01:28:00;100407.00;;;18.00
19644;BMP180;9970;-36.854;174.870;2022-12-07T01:30:33;100407.00;;;18.00
19644;BMP180;9970;-36.854;174.870;2022-12-07T01:33:06;100399.00;;;18.00
19644;BMP180;9970;-36.854;174.870;2022-12-07T01:35:39;100395.00;;;17.90
19644;BMP180;9970;-36.854;174.870;2022-12-07T01:38:12;100400.00;;;17.90
19644;BMP180;9970;-36.854;174.870;2022-12-07T01:40:45;100382.00;;;17.90
19644;BMP180;9970;-36.854;174.870;2022-12-07T01:43:19;100392.00;;;17.90
19644;BMP180;9970;-36.854;174.870;2022-12-07T01:45:53;100389.00;;;17.90
19644;BMP180;9970;-36.854;174.870;2022-12-07T01:48:41;100394.00;;;17.90
19644;BMP180;9970;-36.854;174.870;2022-12-07T01:51:13;100386.00;;;17.90
19644;BMP180;9970;-36.854;174.870;2022-12-07T01:53:51;100385.00;;;17.90
19644;BMP180;9970;-36.854;174.870;2022-12-07T01:56:24;100399.00;;;17.90
19644;BMP180;9970;-36.854;174.870;2022-12-07T01:58:59;100375.00;;;17.90
19644;BMP180;9970;-36.854;174.870;2022-12-07T02:01:33;100396.00;;;17.90
19644;BMP180;9970;-36.854;174.870;2022-12-07T02:04:07;100400.00;;;17.90
19644;BMP180;9970;-36.854;174.870;2022-12-07T02:06:40;100395.00;;;18.00
19644;BMP180;9970;-36.854;174.870;2022-12-07T02:09:14;100394.00;;;18.00
19644;BMP180;9970;-36.854;174.870;2022-12-07T02:11:47;100399.00;;;18.00
19644;BMP180;9970;-36.854;174.870;2022-12-07T02:14:22;100389.00;;;18.00
19644;BMP180;9970;-36.854;174.870;2022-12-07T02:17:14;100395.00;;;18.00
19644;BMP180;9970;-36.854;174.870;2022-12-07T02:25:52;100416.00;;;17.90
19644;BMP180;9970;-36.854;174.870;2022-12-07T02:28:33;100397.00;;;17.90
19644;BMP180;9970;-36.854;174.870;2022-12-07T02:31:14;100397.00;;;17.90
19644;BMP180;9970;-36.854;174.870;2022-12-07T02:34:15;100406.00;;;17.90
19644;BMP180;9970;-36.854;174.870;2022-12-07T02:36:43;100382.00;;;17.90
19644;BMP180;9970;-36.854;174.870;2022-12-07T02:39:22;100388.00;;;17.90
19644;BMP180;9970;-36.854;174.870;2022-12-07T02:41:58;100383.00;;;17.90
19644;BMP180;9970;-36.854;174.870;2022-12-07T02:44:32;100365.00;;;17.90
19644;BMP180;9970;-36.854;174.870;2022-12-07T02:47:09;100385.00;;;17.90
19644;BMP180;9970;-36.854;174.870;2022-12-07T02:49:43;100371.00;;;17.90
19644;BMP180;9970;-36.854;174.870;2022-12-07T02:52:16;100376.00;;;17.80
19644;BMP180;9970;-36.854;174.870;2022-12-07T02:54:50;100402.00;;;17.80
19644;BMP180;9970;-36.854;174.870;2022-12-07T02:57:31;100385.00;;;17.80
19644;BMP180;9970;-36.854;174.870;2022-12-07T03:00:09;100397.00;;;17.80
19644;BMP180;9970;-36.854;174.870;2022-12-07T03:03:04;100405.00;;;17.80
19644;BMP180;9970;-36.854;174.870;2022-12-07T03:05:57;100399.00;;;17.70
19644;BMP180;9970;-36.854;174.870;2022-12-07T03:17:04;100409.00;;;17.60
19644;BMP180;9970;-36.854;174.870;2022-12-07T03:19:28;100421.00;;;17.60
19644;BMP180;9970;-36.854;174.870;2022-12-07T03:22:03;100398.00;;;17.50
19644;BMP180;9970;-36.854;174.870;2022-12-07T03:24:48;100402.00;;;17.50
19644;BMP180;9970;-36.854;174.870;2022-12-07T03:27:25;100410.00;;;17.50
19644;BMP180;9970;-36.854;174.870;2022-12-07T03:30:15;100408.00;;;17.50
19644;BMP180;9970;-36.854;174.870;2022-12-07T03:32:56;100403.00;;;17.50
19644;BMP180;9970;-36.854;174.870;2022-12-07T03:35:44;100407.00;;;17.50
19644;BMP180;9970;-36.854;174.870;2022-12-07T03:41:03;100403.00;;;17.50
19644;BMP180;9970;-36.854;174.870;2022-12-07T03:43:36;100411.00;;;17.50
19644;BMP180;9970;-36.854;174.870;2022-12-07T03:51:56;100390.00;;;17.50
19644;BMP180;9970;-36.854;174.870;2022-12-07T03:54:37;100384.00;;;17.50
19644;BMP180;9970;-36.854;174.870;2022-12-07T03:57:09;100398.00;;;17.50
19644;BMP180;9970;-36.854;174.870;2022-12-07T03:59:43;100398.00;;;17.40
19644;BMP180;9970;-36.854;174.870;2022-12-07T04:02:16;100398.00;;;17.40
19644;BMP180;9970;-36.854;174.870;2022-12-07T04:04:50;100387.00;;;17.40
19644;BMP180;9970;-36.854;174.870;2022-12-07T04:07:23;100409.00;;;17.40
19644;BMP180;9970;-36.854;174.870;2022-12-07T04:09:56;100390.00;;;17.40
19644;BMP180;9970;-36.854;174.870;2022-12-07T04:12:29;100403.00;;;17.40
19644;BMP180;9970;-36.854;174.870;2022-12-07T04:15:02;100407.00;;;17.40
19644;BMP180;9970;-36.854;174.870;2022-12-07T04:17:35;100415.00;;;17.40
19644;BMP180;9970;-36.854;174.870;2022-12-07T04:20:09;100409.00;;;17.30
19644;BMP180;9970;-36.854;174.870;2022-12-07T04:22:42;100409.00;;;17.30
19644;BMP180;9970;-36.854;174.870;2022-12-07T04:25:16;100416.00;;;17.30
19644;BMP180;9970;-36.854;174.870;2022-12-07T04:27:49;100396.00;;;17.30
19644;BMP180;9970;-36.854;174.870;2022-12-07T04:30:22;100414.00;;;17.30
19644;BMP180;9970;-36.854;174.870;2022-12-07T04:32:55;100408.00;;;17.30
19644;BMP180;9970;-36.854;174.870;2022-12-07T04:35:27;100428.00;;;17.30
19644;BMP180;9970;-36.854;174.870;2022-12-07T04:38:01;100413.00;;;17.30
19644;BMP180;9970;-36.854;174.870;2022-12-07T04:40:34;100416.00;;;17.20
19644;BMP180;9970;-36.854;174.870;2022-12-07T04:43:07;100403.00;;;17.20
19644;BMP180;9970;-36.854;174.870;2022-12-07T04:45:44;100414.00;;;17.20
19644;BMP180;9970;-36.854;174.870;2022-12-07T04:48:14;100405.00;;;17.20
19644;BMP180;9970;-36.854;174.870;2022-12-07T04:50:49;100394.00;;;17.20
19644;BMP180;9970;-36.854;174.870;2022-12-07T04:53:22;100402.00;;;17.20
19644;BMP180;9970;-36.854;174.870;2022-12-07T04:55:55;100401.00;;;17.20
19644;BMP180;9970;-36.854;174.870;2022-12-07T04:58:28;100397.00;;;17.20
19644;BMP180;9970;-36.854;174.870;2022-12-07T05:01:01;100386.00;;;17.20
19644;BMP180;9970;-36.854;174.870;2022-12-07T05:03:35;100397.00;;;17.10
19644;BMP180;9970;-36.854;174.870;2022-12-07T05:06:09;100386.00;;;17.10
19644;BMP180;9970;-36.854;174.870;2022-12-07T05:08:45;100403.00;;;17.10
19644;BMP180;9970;-36.854;174.870;2022-12-07T05:11:17;100397.00;;;17.10
19644;BMP180;9970;-36.854;174.870;2022-12-07T05:14:12;100401.00;;;17.10
19644;BMP180;9970;-36.854;174.870;2022-12-07T05:16:46;100393.00;;;17.10
19644;BMP180;9970;-36.854;174.870;2022-12-07T05:19:19;100405.00;;;17.10
19644;BMP180;9970;-36.854;174.870;2022-12-07T05:21:52;100384.00;;;17.00
19644;BMP180;9970;-36.854;174.870;2022-12-07T05:24:25;100407.00;;;17.00
19644;BMP180;9970;-36.854;174.870;2022-12-07T05:26:58;100399.00;;;17.10
19644;BMP180;9970;-36.854;174.870;2022-12-07T05:29:31;100409.00;;;17.10
19644;BMP180;9970;-36.854;174.870;2022-12-07T05:32:04;100403.00;;;17.10
19644;BMP180;9970;-36.854;174.870;2022-12-07T05:34:38;100421.00;;;17.10
19644;BMP180;9970;-36.854;174.870;2022-12-07T05:37:11;100429.00;;;17.10
19644;BMP180;9970;-36.854;174.870;2022-12-07T05:39:44;100430.00;;;17.10
19644;BMP180;9970;-36.854;174.870;2022-12-07T05:42:17;100427.00;;;17.10
19644;BMP180;9970;-36.854;174.870;2022-12-07T05:44:50;100413.00;;;17.10
19644;BMP180;9970;-36.854;174.870;2022-12-07T05:47:23;100420.00;;;17.10
19644;BMP180;9970;-36.854;174.870;2022-12-07T05:49:57;100432.00;;;17.10
19644;BMP180;9970;-36.854;174.870;2022-12-07T05:52:30;100432.00;;;17.10
19644;BMP180;9970;-36.854;174.870;2022-12-07T05:55:07;100430.00;;;17.10
19644;BMP180;9970;-36.854;174.870;2022-12-07T05:57:40;100445.00;;;17.10
19644;BMP180;9970;-36.854;174.870;2022-12-07T06:00:15;100451.00;;;17.10
19644;BMP180;9970;-36.854;174.870;2022-12-07T06:02:48;100432.00;;;17.10
19644;BMP180;9970;-36.854;174.870;2022-12-07T06:05:21;100454.00;;;17.10
19644;BMP180;9970;-36.854;174.870;2022-12-07T06:07:54;100447.00;;;17.10
19644;BMP180;9970;-36.854;174.870;2022-12-07T06:10:28;100462.00;;;17.20
19644;BMP180;9970;-36.854;174.870;2022-12-07T06:13:01;100460.00;;;17.20
19644;BMP180;9970;-36.854;174.870;2022-12-07T06:15:36;100469.00;;;17.20
19644;BMP180;9970;-36.854;174.870;2022-12-07T06:18:10;100471.00;;;17.20
19644;BMP180;9970;-36.854;174.870;2022-12-07T06:20:43;100457.00;;;17.20
19644;BMP180;9970;-36.854;174.870;2022-12-07T06:23:16;100467.00;;;17.20
19644;BMP180;9970;-36.854;174.870;2022-12-07T06:25:48;100471.00;;;17.20
19644;BMP180;9970;-36.854;174.870;2022-12-07T06:28:22;100466.00;;;17.20
19644;BMP180;9970;-36.854;174.870;2022-12-07T06:31:01;100474.00;;;17.20
19644;BMP180;9970;-36.854;174.870;2022-12-07T06:33:35;100478.00;;;17.20
19644;BMP180;9970;-36.854;174.870;2022-12-07T06:36:09;100482.00;;;17.20
19644;BMP180;9970;-36.854;174.870;2022-12-07T06:38:42;100489.00;;;17.20
19644;BMP180;9970;-36.854;174.870;2022-12-07T06:41:15;100488.00;;;17.20
19644;BMP180;9970;-36.854;174.870;2022-12-07T06:43:53;100493.00;;;17.20
19644;BMP180;9970;-36.854;174.870;2022-12-07T06:46:26;100488.00;;;17.20
19644;BMP180;9970;-36.854;174.870;2022-12-07T06:48:59;100490.00;;;17.20
19644;BMP180;9970;-36.854;174.870;2022-12-07T06:51:35;100488.00;;;17.20
19644;BMP180;9970;-36.854;174.870;2022-12-07T06:54:15;100489.00;;;17.20
19644;BMP180;9970;-36.854;174.870;2022-12-07T06:56:48;100515.00;;;17.20
19644;BMP180;9970;-36.854;174.870;2022-12-07T06:59:21;100518.00;;;17.20
19644;BMP180;9970;-36.854;174.870;2022-12-07T07:01:59;100514.00;;;17.20
19644;BMP180;9970;-36.854;174.870;2022-12-07T07:04:32;100516.00;;;17.20
19644;BMP180;9970;-36.854;174.870;2022-12-07T07:07:08;100513.00;;;17.20
19644;BMP180;9970;-36.854;174.870;2022-12-07T07:09:41;100511.00;;;17.20
19644;BMP180;9970;-36.854;174.870;2022-12-07T07:12:17;100517.00;;;17.20
19644;BMP180;9970;-36.854;174.870;2022-12-07T07:14:50;100502.00;;;17.20
19644;BMP180;9970;-36.854;174.870;2022-12-07T07:17:24;100504.00;;;17.20
19644;BMP180;9970;-36.854;174.870;2022-12-07T07:19:56;100502.00;;;17.20
19644;BMP180;9970;-36.854;174.870;2022-12-07T07:22:30;100505.00;;;17.20
19644;BMP180;9970;-36.854;174.870;2022-12-07T07:25:08;100515.00;;;17.20
19644;BMP180;9970;-36.854;174.870;2022-12-07T07:27:41;100500.00;;;17.20
19644;BMP180;9970;-36.854;174.870;2022-12-07T07:30:14;100506.00;;;17.10
19644;BMP180;9970;-36.854;174.870;2022-12-07T07:32:47;100508.00;;;17.10
19644;BMP180;9970;-36.854;174.870;2022-12-07T07:35:20;100513.00;;;17.10
19644;BMP180;9970;-36.854;174.870;2022-12-07T07:37:57;100505.00;;;17.10
19644;BMP180;9970;-36.854;174.870;2022-12-07T07:40:30;100510.00;;;17.10
19644;BMP180;9970;-36.854;174.870;2022-12-07T07:43:03;100501.00;;;17.10
19644;BMP180;9970;-36.854;174.870;2022-12-07T07:45:36;100505.00;;;17.10
19644;BMP180;9970;-36.854;174.870;2022-12-07T07:48:09;100518.00;;;17.10
19644;BMP180;9970;-36.854;174.870;2022-12-07T07:50:45;100518.00;;;17.10
19644;BMP180;9970;-36.854;174.870;2022-12-07T07:53:18;100521.00;;;17.10
19644;BMP180;9970;-36.854;174.870;2022-12-07T07:55:57;100526.00;;;17.10
19644;BMP180;9970;-36.854;174.870;2022-12-07T07:58:30;100523.00;;;17.10
19644;BMP180;9970;-36.854;174.870;2022-12-07T08:01:07;100522.00;;;17.10
19644;BMP180;9970;-36.854;174.870;2022-12-07T08:03:40;100535.00;;;17.10
19644;BMP180;9970;-36.854;174.870;2022-12-07T08:06:13;100536.00;;;17.10
19644;BMP180;9970;-36.854;174.870;2022-12-07T08:08:46;100549.00;;;17.10
19644;BMP180;9970;-36.854;174.870;2022-12-07T08:11:19;100546.00;;;17.10
19644;BMP180;9970;-36.854;174.870;2022-12-07T08:13:52;100543.00;;;17.10
19644;BMP180;9970;-36.854;174.870;2022-12-07T08:16:25;100552.00;;;17.10
19644;BMP180;9970;-36.854;174.870;2022-12-07T08:18:58;100546.00;;;17.10
19644;BMP180;9970;-36.854;174.870;2022-12-07T08:21:31;100551.00;;;17.10
19644;BMP180;9970;-36.854;174.870;2022-12-07T08:24:05;100563.00;;;17.10
19644;BMP180;9970;-36.854;174.870;2022-12-07T08:26:38;100576.00;;;17.10
19644;BMP180;9970;-36.854;174.870;2022-12-07T08:29:13;100565.00;;;17.10
19644;BMP180;9970;-36.854;174.870;2022-12-07T08:31:47;100578.00;;;17.10
19644;BMP180;9970;-36.854;174.870;2022-12-07T08:34:20;100570.00;;;17.10
19644;BMP180;9970;-36.854;174.870;2022-12-07T08:36:53;100576.00;;;17.10
19644;BMP180;9970;-36.854;174.870;2022-12-07T08:39:26;100586.00;;;17.10
19644;BMP180;9970;-36.854;174.870;2022-12-07T08:42:00;100576.00;;;17.10
19644;BMP180;9970;-36.854;174.870;2022-12-07T08:44:33;100591.00;;;17.10
19644;BMP180;9970;-36.854;174.870;2022-12-07T08:47:07;100597.00;;;17.10
19644;BMP180;9970;-36.854;174.870;2022-12-07T08:49:43;100587.00;;;17.10
19644;BMP180;9970;-36.854;174.870;2022-12-07T08:52:17;100603.00;;;17.10
19644;BMP180;9970;-36.854;174.870;2022-12-07T08:54:51;100597.00;;;17.10
19644;BMP180;9970;-36.854;174.870;2022-12-07T08:57:28;100608.00;;;17.10
19644;BMP180;9970;-36.854;174.870;2022-12-07T09:00:02;100615.00;;;17.10
19644;BMP180;9970;-36.854;174.870;2022-12-07T09:02:35;100621.00;;;17.00
19644;BMP180;9970;-36.854;174.870;2022-12-07T09:05:09;100623.00;;;17.00
19644;BMP180;9970;-36.854;174.870;2022-12-07T09:07:44;100621.00;;;17.00
19644;BMP180;9970;-36.854;174.870;2022-12-07T09:10:18;100618.00;;;17.00
19644;BMP180;9970;-36.854;174.870;2022-12-07T09:12:51;100616.00;;;17.00
19644;BMP180;9970;-36.854;174.870;2022-12-07T09:15:24;100619.00;;;17.00
19644;BMP180;9970;-36.854;174.870;2022-12-07T09:17:57;100622.00;;;17.00
19644;BMP180;9970;-36.854;174.870;2022-12-07T09:20:30;100625.00;;;17.00
19644;BMP180;9970;-36.854;174.870;2022-12-07T09:23:05;100617.00;;;17.00
19644;BMP180;9970;-36.854;174.870;2022-12-07T09:25:37;100612.00;;;17.00
19644;BMP180;9970;-36.854;174.870;2022-12-07T09:28:10;100620.00;;;17.00
19644;BMP180;9970;-36.854;174.870;2022-12-07T09:30:49;100626.00;;;17.00
19644;BMP180;9970;-36.854;174.870;2022-12-07T09:33:23;100626.00;;;17.00
19644;BMP180;9970;-36.854;174.870;2022-12-07T09:35:56;100616.00;;;17.00
19644;BMP180;9970;-36.854;174.870;2022-12-07T09:38:29;100615.00;;;17.00
19644;BMP180;9970;-36.854;174.870;2022-12-07T09:41:06;100610.00;;;17.00
19644;BMP180;9970;-36.854;174.870;2022-12-07T09:43:40;100618.00;;;17.00
19644;BMP180;9970;-36.854;174.870;2022-12-07T09:46:15;100605.00;;;17.00
19644;BMP180;9970;-36.854;174.870;2022-12-07T09:48:50;100608.00;;;17.00
19644;BMP180;9970;-36.854;174.870;2022-12-07T09:51:24;100612.00;;;17.00
19644;BMP180;9970;-36.854;174.870;2022-12-07T09:53:58;100626.00;;;17.00
19644;BMP180;9970;-36.854;174.870;2022-12-07T09:56:31;100611.00;;;17.00
19644;BMP180;9970;-36.854;174.870;2022-12-07T09:59:04;100612.00;;;16.90
19644;BMP180;9970;-36.854;174.870;2022-12-07T10:01:38;100622.00;;;16.90
19644;BMP180;9970;-36.854;174.870;2022-12-07T10:04:13;100616.00;;;17.00
19644;BMP180;9970;-36.854;174.870;2022-12-07T10:06:46;100625.00;;;17.00
19644;BMP180;9970;-36.854;174.870;2022-12-07T10:09:20;100617.00;;;17.00
19644;BMP180;9970;-36.854;174.870;2022-12-07T10:12:00;100620.00;;;17.00
19644;BMP180;9970;-36.854;174.870;2022-12-07T10:14:35;100617.00;;;16.90
19644;BMP180;9970;-36.854;174.870;2022-12-07T10:17:36;100627.00;;;16.90
19644;BMP180;9970;-36.854;174.870;2022-12-07T10:20:17;100628.00;;;16.90
19644;BMP180;9970;-36.854;174.870;2022-12-07T10:25:35;100626.00;;;16.80
19644;BMP180;9970;-36.854;174.870;2022-12-07T10:28:13;100643.00;;;16.80
19644;BMP180;9970;-36.854;174.870;2022-12-07T10:31:03;100642.00;;;16.90
19644;BMP180;9970;-36.854;174.870;2022-12-07T10:33:38;100639.00;;;16.80
19644;BMP180;9970;-36.854;174.870;2022-12-07T10:36:37;100625.00;;;16.80
19644;BMP180;9970;-36.854;174.870;2022-12-07T10:39:15;100630.00;;;16.80
19644;BMP180;9970;-36.854;174.870;2022-12-07T10:42:02;100633.00;;;16.80
19644;BMP180;9970;-36.854;174.870;2022-12-07T10:44:36;100642.00;;;16.80
19644;BMP180;9970;-36.854;174.870;2022-12-07T10:47:24;100634.00;;;16.80
19644;BMP180;9970;-36.854;174.870;2022-12-07T10:50:27;100636.00;;;16.80
19644;BMP180;9970;-36.854;174.870;2022-12-07T11:02:18;100646.00;;;16.70
19644;BMP180;9970;-36.854;174.870;2022-12-07T11:05:27;100642.00;;;16.60
19644;BMP180;9970;-36.854;174.870;2022-12-07T11:07:41;100635.00;;;16.60
19644;BMP180;9970;-36.854;174.870;2022-12-07T11:16:02;100622.00;;;16.60
19644;BMP180;9970;-36.854;174.870;2022-12-07T11:18:51;100630.00;;;16.60
19644;BMP180;9970;-36.854;174.870;2022-12-07T11:21:55;100618.00;;;16.50
19644;BMP180;9970;-36.854;174.870;2022-12-07T11:24:20;100619.00;;;16.50
19644;BMP180;9970;-36.854;174.870;2022-12-07T11:27:09;100621.00;;;16.50
19644;BMP180;9970;-36.854;174.870;2022-12-07T11:32:58;100619.00;;;16.50
19644;BMP180;9970;-36.854;174.870;2022-12-07T11:38:18;100616.00;;;16.40
19644;BMP180;9970;-36.854;174.870;2022-12-07T11:40:55;100614.00;;;16.40
19644;BMP180;9970;-36.854;174.870;2022-12-07T11:43:30;100607.00;;;16.40
19644;BMP180;9970;-36.854;174.870;2022-12-07T11:46:04;100623.00;;;16.40
19644;BMP180;9970;-36.854;174.870;2022-12-07T11:48:43;100608.00;;;16.40
19644;BMP180;9970;-36.854;174.870;2022-12-07T11:51:16;100600.00;;;16.40
19644;BMP180;9970;-36.854;174.870;2022-12-07T11:53:52;100608.00;;;16.40
19644;BMP180;9970;-36.854;174.870;2022-12-07T11:56:26;100617.00;;;16.40
19644;BMP180;9970;-36.854;174.870;2022-12-07T11:59:02;100602.00;;;16.40
19644;BMP180;9970;-36.854;174.870;2022-12-07T12:01:50;100613.00;;;16.40
19644;BMP180;9970;-36.854;174.870;2022-12-07T12:07:26;100609.00;;;16.30
19644;BMP180;9970;-36.854;174.870;2022-12-07T12:09:59;100605.00;;;16.30
19644;BMP180;9970;-36.854;174.870;2022-12-07T12:15:33;100601.00;;;16.30
19644;BMP180;9970;-36.854;174.870;2022-12-07T12:18:10;100607.00;;;16.30
19644;BMP180;9970;-36.854;174.870;2022-12-07T12:23:26;100606.00;;;16.30
19644;BMP180;9970;-36.854;174.870;2022-12-07T12:25:57;100615.00;;;16.30
19644;BMP180;9970;-36.854;174.870;2022-12-07T12:28:51;100612.00;;;16.30
19644;BMP180;9970;-36.854;174.870;2022-12-07T12:36:58;100615.00;;;16.30
19644;BMP180;9970;-36.854;174.870;2022-12-07T12:39:31;100610.00;;;16.30
19644;BMP180;9970;-36.854;174.870;2022-12-07T12:42:05;100613.00;;;16.30
19644;BMP180;9970;-36.854;174.870;2022-12-07T12:44:39;100597.00;;;16.30
19644;BMP180;9970;-36.854;174.870;2022-12-07T12:47:43;100611.00;;;16.30
19644;BMP180;9970;-36.854;174.870;2022-12-07T12:50:35;100613.00;;;16.30
19644;BMP180;9970;-36.854;174.870;2022-12-07T12:53:24;100608.00;;;16.30
19644;BMP180;9970;-36.854;174.870;2022-12-07T12:58:50;100590.00;;;16.20
19644;BMP180;9970;-36.854;174.870;2022-12-07T13:01:44;100601.00;;;16.30
19644;BMP180;9970;-36.854;174.870;2022-12-07T13:04:25;100602.00;;;16.20
19644;BMP180;9970;-36.854;174.870;2022-12-07T13:06:58;100599.00;;;16.30
19644;BMP180;9970;-36.854;174.870;2022-12-07T13:09:33;100591.00;;;16.30
19644;BMP180;9970;-36.854;174.870;2022-12-07T13:12:11;100597.00;;;16.30
19644;BMP180;9970;-36.854;174.870;2022-12-07T13:20:19;100590.00;;;16.30
19644;BMP180;9970;-36.854;174.870;2022-12-07T13:22:46;100583.00;;;16.30
19644;BMP180;9970;-36.854;174.870;2022-12-07T13:28:21;100586.00;;;16.30
19644;BMP180;9970;-36.854;174.870;2022-12-07T13:33:29;100582.00;;;16.30
19644;BMP180;9970;-36.854;174.870;2022-12-07T13:36:02;100589.00;;;16.30
19644;BMP180;9970;-36.854;174.870;2022-12-07T13:38:36;100582.00;;;16.30
19644;BMP180;9970;-36.854;174.870;2022-12-07T13:41:17;100588.00;;;16.30
19644;BMP180;9970;-36.854;174.870;2022-12-07T13:44:02;100586.00;;;16.30
19644;BMP180;9970;-36.854;174.870;2022-12-07T13:49:23;100574.00;;;16.30
19644;BMP180;9970;-36.854;174.870;2022-12-07T13:52:08;100577.00;;;16.30
19644;BMP180;9970;-36.854;174.870;2022-12-07T13:54:31;100582.00;;;16.30
19644;BMP180;9970;-36.854;174.870;2022-12-07T13:57:06;100570.00;;;16.30
19644;BMP180;9970;-36.854;174.870;2022-12-07T13:59:39;100578.00;;;16.30
19644;BMP180;9970;-36.854;174.870;2022-12-07T14:02:28;100575.00;;;16.30
19644;BMP180;9970;-36.854;174.870;2022-12-07T14:05:16;100576.00;;;16.30
19644;BMP180;9970;-36.854;174.870;2022-12-07T14:08:03;100579.00;;;16.30
19644;BMP180;9970;-36.854;174.870;2022-12-07T14:13:37;100593.00;;;16.30
19644;BMP180;9970;-36.854;174.870;2022-12-07T14:18:59;100595.00;;;16.30
19644;BMP180;9970;-36.854;174.870;2022-12-07T14:21:33;100587.00;;;16.30
19644;BMP180;9970;-36.854;174.870;2022-12-07T14:24:17;100595.00;;;16.30
19644;BMP180;9970;-36.854;174.870;2022-12-07T14:26:51;100579.00;;;16.30
19644;BMP180;9970;-36.854;174.870;2022-12-07T14:32:20;100577.00;;;16.40
19644;BMP180;9970;-36.854;174.870;2022-12-07T14:35:10;100594.00;;;16.40
19644;BMP180;9970;-36.854;174.870;2022-12-07T14:37:45;100576.00;;;16.40
19644;BMP180;9970;-36.854;174.870;2022-12-07T14:40:25;100578.00;;;16.40
19644;BMP180;9970;-36.854;174.870;2022-12-07T14:43:00;100588.00;;;16.40
19644;BMP180;9970;-36.854;174.870;2022-12-07T14:45:32;100582.00;;;16.40
19644;BMP180;9970;-36.854;174.870;2022-12-07T14:48:06;100591.00;;;16.50
19644;BMP180;9970;-36.854;174.870;2022-12-07T14:50:44;100595.00;;;16.50
19644;BMP180;9970;-36.854;174.870;2022-12-07T14:53:21;100590.00;;;16.40
19644;BMP180;9970;-36.854;174.870;2022-12-07T14:55:54;100602.00;;;16.40
19644;BMP180;9970;-36.854;174.870;2022-12-07T14:58:28;100589.00;;;16.40
19644;BMP180;9970;-36.854;174.870;2022-12-07T15:01:01;100606.00;;;16.40
19644;BMP180;9970;-36.854;174.870;2022-12-07T15:03:34;100592.00;;;16.50
19644;BMP180;9970;-36.854;174.870;2022-12-07T15:06:10;100602.00;;;16.40
19644;BMP180;9970;-36.854;174.870;2022-12-07T15:08:43;100608.00;;;16.40
19644;BMP180;9970;-36.854;174.870;2022-12-07T15:11:19;100596.00;;;16.50
19644;BMP180;9970;-36.854;174.870;2022-12-07T15:13:52;100608.00;;;16.50
19644;BMP180;9970;-36.854;174.870;2022-12-07T15:16:42;100603.00;;;16.50
19644;BMP180;9970;-36.854;174.870;2022-12-07T15:19:21;100602.00;;;16.50
19644;BMP180;9970;-36.854;174.870;2022-12-07T15:21:56;100601.00;;;16.50
19644;BMP180;9970;-36.854;174.870;2022-12-07T15:24:30;100602.00;;;16.50
19644;BMP180;9970;-36.854;174.870;2022-12-07T15:27:03;100609.00;;;16.50
19644;BMP180;9970;-36.854;174.870;2022-12-07T15:29:36;100603.00;;;16.50
19644;BMP180;9970;-36.854;174.870;2022-12-07T15:32:09;100613.00;;;16.40
19644;BMP180;9970;-36.854;174.870;2022-12-07T15:34:43;100605.00;;;16.40
19644;BMP180;9970;-36.854;174.870;2022-12-07T15:37:16;100613.00;;;16.40
19644;BMP180;9970;-36.854;174.870;2022-12-07T15:40:05;100610.00;;;16.40
19644;BMP180;9970;-36.854;174.870;2022-12-07T15:42:38;100617.00;;;16.40
19644;BMP180;9970;-36.854;174.870;2022-12-07T15:45:11;100620.00;;;16.40